Departure ICAO
Arrival ICAO

The revolutionary moving map for travelling passengers has finally arrived
More information here

LFMD Cannes Mandelieu - EGKB London Biggin Hill


Distance 545 NM


LFMN Nice Cote D'Azur VFR

METAR LFMN 231230Z 16004KT 9999 FEW017 BKN045 26/21 Q1018 NOSIG

TAF LFMN 230800Z 2309/2415 34006KT 9999 FEW020 BKN040 BECMG 2309/2311 18010KT FEW020 BECMG 2317/2319 VRB03KT TEMPO 2319/2403 OVC010 BECMG 2401/2403 08013KT BECMG 2407/2409 BKN014


LFMD Cannes Mandelieu VFR

METAR LFMD 231230Z AUTO 17006KT 130V200 9999 FEW017 OVC045 26/20 Q1018 NOSIG

TAF LFMD 230800Z 2309/2409 VRB03KT 9999 BKN025 BECMG 2309/2311 16010KT BECMG 2317/2319 VRB03KT CAVOK TEMPO 2400/2403 27020G35KT BECMG 2405/2407 BKN010


LFLB Chambery Aix Les Bains VFR CAVOK

METAR LFLB 231230Z AUTO 35006KT CAVOK 27/15 Q1019 NOSIG

TAF LFLB 231100Z 2312/2412 20005KT 9999 BKN060 BECMG 2316/2318 36008KT TEMPO 2316/2324 VRB15G35KT 4000 SHRA FEW030CB SCT035TCU BKN040 PROB40 TEMPO 2317/2323 2000 TSRA SCT030CB BKN035TCU PROB30 TEMPO 2318/2324 VRB20G45KT BECMG 2406/2408 36015G25KT SCT030 SCT050


LFLS Grenoble Saint Geoirs VFR CAVOK

METAR LFLS 231230Z AUTO 33004KT 290V060 CAVOK 29/14 Q1020 NOSIG

TAF LFLS 230800Z 2309/2409 09005KT 9999 BKN045 BECMG 2315/2317 32010KT PROB40 TEMPO 2317/2320 4000 SHRA SCT040TCU TEMPO 2320/2324 32015G25KT 5000 RA BKN012 PROB40 TEMPO 2322/2324 32020G35KT 3000 RA OVC006 BECMG 2400/2402 BKN015 BKN040 BECMG 2406/2408 SCT015


LFLL Lyon Saint Exupery VFR CAVOK

METAR LFLL 231230Z VRB04KT CAVOK 29/12 Q1019 NOSIG

TAF LFLL 231100Z 2312/2418 VRB03KT CAVOK BECMG 2315/2317 33006KT BECMG 2317/2319 34012KT OVC035 TEMPO 2321/2323 34017KT 6000 SHRA BKN014 OVC030 BECMG 2409/2411 CAVOK TEMPO 2411/2416 36020KT


LFLY Lyon Bron VFR CAVOK

METAR LFLY 231230Z AUTO 17005KT 110V260 CAVOK 30/13 Q1019 NOSIG

TAF LFLY 231100Z 2312/2412 20005KT CAVOK BECMG 2315/2317 34012KT PROB40 TEMPO 2315/2320 34015G25KT 5000 SHRA SCT050TCU TEMPO 2320/2401 35015G35KT 4000 RA BKN020 BECMG 2401/2403 BKN015 BECMG 2408/2410 SCT025 TEMPO 2408/2412 36015G30KT


LFLN Saint Yan VFR

METAR LFLN 231230Z AUTO 24012KT 180V280 9999 BKN044 BKN110 27/16 Q1019 TEMPO 27015G30KT

TAF LFLN 231100Z 2312/2321 24010KT 9999 OVC032 TEMPO 2312/2318 27015G30KT BECMG 2317/2318 -RA OVC020 TEMPO 2318/2321 34020G35KT


LFPM Melun Villaroche VFR

METAR LFPM 231230Z AUTO 23019KT 9999 BKN011/// OVC016/// ///TCU 21/20 Q1013


LFPO Paris Orly VFR

METAR LFPO 231230Z 25020KT 9999 -RA BKN014 FEW020TCU 21/19 Q1012 TEMPO 25025G40KT 2500 RA

TAF LFPO 231100Z 2312/2418 23020G30KT 9999 BKN011 TEMPO 2312/2315 25025G40KT 2500 RA BKN006 SCT015CB BECMG 2315/2318 32010G20KT BKN020 BECMG 2321/2324 34004KT SCT040 BECMG 2400/2403 VRB03KT CAVOK BECMG 2409/2412 02005KT SCT035 BECMG 2415/2418 CAVOK


LFPG Paris Charles De Gaulle VFR

METAR LFPG 231230Z 25019KT 9999 -RA SCT015 FEW016TCU BKN071 20/18 Q1012 TEMPO 28030G45KT 1500 +RA BKN010 BKN012TCU

TAF LFPG 231100Z 2312/2418 24020G35KT 9999 BKN020 TX21/2312Z TN08/2406Z TEMPO 2312/2314 28030G45KT 1500 +RA BKN010 BKN012TCU BECMG 2313/2315 32020G40KT PROB30 TEMPO 2315/2318 3000 -RA BECMG 2315/2317 34015G30KT BECMG 2319/2321 33010KT


LFPB Paris Le Bourget VFR CB

METAR LFPB 231230Z AUTO 25013KT 9999 -DZ BKN016/// BKN031/// BKN060/// ///CB 20/18 Q1012 TEMPO 1500 +RA BECMG 32020G40KT SCT020 BKN025

TAF LFPB 231100Z 2312/2412 24020G35KT 9999 SCT020 BKN025 TEMPO 2312/2314 28030G45KT 1500 +RA BKN010 BKN012TCU BECMG 2313/2315 32020G40KT PROB30 TEMPO 2315/2318 3000 -RA BECMG 2315/2317 34015G30KT BECMG 2319/2321 33010KT


LFPV Villacoublay Velizy VFR

METAR LFPV 231230Z AUTO 25017G28KT 220V290 9999 -DZ FEW011/// BKN017/// BKN023/// ///TCU 20/18 Q1013 TEMPO 4000 SHRA BECMG BKN012


LFPN Toussous Le Noble VFR CB

METAR LFPN 231230Z AUTO 25014KT 9999 FEW009/// BKN018/// BKN033/// ///TCU 21/18 Q1013 TEMPO 25025G40KT 2500 RA BKN006 SCT015CB

TAF LFPN 231100Z 2312/2321 23020G30KT 9999 BKN012 TEMPO 2312/2315 25025G40KT 2500 RA BKN006 SCT015CB BECMG 2315/2318 32010G20KT BKN020


LFPT Pontoise Cormeilles En Vexin VFR CB

METAR LFPT 231230Z AUTO 26015KT 240V320 9000 1600 FEW011/// BKN019/// BKN033/// ///CB 20/18 Q1011


LFOB Beauvais Tille VFR CB

METAR LFOB 231230Z AUTO 33013KT 9999 -RA BKN011/// BKN019/// BKN027/// ///CB 14/12 Q1013 TEMPO 3000 SHRA OVC008 BECMG 34015G25KT

TAF AMD LFOB 231227Z 2312/2412 34015G25KT 9999 BKN015 TEMPO 2312/2320 3000 SHRA BKN008 BKN015CB BECMG 2321/2324 30005KT NSC TEMPO 2403/2407 4000 BR


LFAT Le Tourquet Paris Plage VFR CB

METAR LFAT 231230Z AUTO 36017KT 9999 BKN014 OVC019 13/11 Q1014 TEMPO 34020G35KT 3000 SHRA BKN008 BKN015CB

TAF LFAT 231100Z 2312/2321 34015G25KT 9999 BKN015 TEMPO 2312/2316 34020G35KT 3000 SHRA BKN008 BKN015CB BECMG 2319/2321 27005KT


EGMD Lydd VFR

METAR EGMD 231220Z 35022KT 8000 -RA SCT016 11/09 Q1016

TAF EGMD 231054Z 2312/2321 35020KT 9999 SCT030 TEMPO 2312/2313 8000 RA BKN007 BECMG 2315/2318 31010KT


EGKA Shoreham By Sea Shoreham VFR

METAR EGKA 231220Z 35015KT 8000 -RA FEW012 BKN020 09/08 Q1018

TAF EGKA 231054Z 2312/2318 35012KT 9999 SCT030 TEMPO 2312/2314 35018G28KT 8000 RA BKN008


EGKB London Biggin Hill VFR

METAR EGKB 231220Z 33009KT 7000 -SHRA FEW010 BKN045 08/06 Q1018

TAF EGKB 231054Z 2312/2321 34012KT 9999 SCT030 TEMPO 2312/2314 35018G28KT 7000 RA BKN007


EGKK London Gatwick VFR

METAR EGKK 231220Z 34009KT 9999 -RA FEW017 09/07 Q1018

TAF EGKK 231056Z 2312/2418 35008KT 9999 SCT030 PROB30 TEMPO 2312/2314 35015G25KT 8000 RA BKN008 PROB30 2401/2408 6000


EGLC London City VFR

METAR EGLC 231220Z AUTO 30008KT 9999 -RA BKN047 10/07 Q1018

TAF EGLC 231054Z 2312/2321 33010KT 9999 SCT030 PROB40 TEMPO 2312/2314 33015G25KT 9000 RA BKN012


EGSS London Stansted VFR

METAR EGSS 231220Z AUTO 32008KT 9999 NCD 10/07 Q1018

TAF EGSS 231100Z 2312/2418 34012KT 9999 FEW035 TEMPO 2313/2318 33015G25KT


EGLL London Heathrow VFR

METAR EGLL 231220Z AUTO 32007KT 9999 FEW046 10/07 Q1019

TAF EGLL 231053Z 2312/2418 33010KT 9999 SCT040 TEMPO 2312/2314 34015G25KT 7000 RA PROB30 2400/2408 7000


EGWU Northolt VFR

METAR EGWU 231150Z 34006KT 9999 BKN045 10/07 Q1018 BLU NOSIG

TAF EGWU 231051Z 2312/2406 34012KT 9999 BKN030


EGLF London Farnborough VFR

METAR EGLF 231220Z 32010KT 290V350 9999 FEW017 10/08 Q1019

TAF EGLF 231054Z 2312/2319 34012KT 9999 SCT030 TEMPO 2312/2313 7000 RA BKN014 PROB30 TEMPO 2312/2316 35015G25KT



NOTAMS LFMD

 NOTAMS EGKB